Time;durP1;ratioP1;P1;durP2;ratioP2;P2;SDS_P1;SDS_P2;PMS_P1;PMS_P2;Temp;Humidity;BMP_temperature;BMP_pressure;BME280_temperature;BME280_humidity;BME280_pressure;Samples;Min_cycle;Max_cycle;Signal;HPM_P1;HPM_P2
2023/06/10 00:01:51;;;;;;;26.90;10.43;;;17.70;99.90;;;;;;5053089;28;20045;-54
2023/06/10 00:04:18;;;;;;;23.45;9.43;;;17.70;99.90;;;;;;5053048;28;20083;-57
2023/06/10 00:06:48;;;;;;;22.02;9.55;;;17.60;99.90;;;;;;5053148;28;20045;-55
2023/06/10 00:09:15;;;;;;;22.80;9.63;;;17.60;99.90;;;;;;5052726;28;20045;-56
2023/06/10 00:11:42;;;;;;;21.90;10.00;;;17.50;99.90;;;;;;5053393;28;20388;-52
2023/06/10 00:14:09;;;;;;;28.45;9.80;;;17.50;99.90;;;;;;5052951;28;20044;-54
2023/06/10 00:16:36;;;;;;;22.63;9.82;;;17.50;99.90;;;;;;5053124;28;20036;-56
2023/06/10 00:19:03;;;;;;;25.88;10.57;;;17.60;99.90;;;;;;5053108;28;20041;-55
2023/06/10 00:21:30;;;;;;;22.77;9.75;;;17.50;99.90;;;;;;5051921;28;20045;-51
2023/06/10 00:23:57;;;;;;;24.45;10.40;;;17.50;99.90;;;;;;5051814;28;20084;-49
2023/06/10 00:26:24;;;;;;;22.52;10.60;;;17.40;99.90;;;;;;5037975;28;20049;-57
2023/06/10 00:28:52;;;;;;;25.15;10.60;;;17.40;99.90;;;;;;5057089;28;20111;-52
2023/06/10 00:31:20;;;;;;;23.85;10.23;;;17.30;99.90;;;;;;5057317;28;20061;-54
2023/06/10 00:33:47;;;;;;;20.08;9.95;;;17.10;99.90;;;;;;5055547;28;20053;-53
2023/06/10 00:36:13;;;;;;;24.60;11.23;;;17.10;99.90;;;;;;5072461;28;20037;-51
2023/06/10 00:38:40;;;;;;;24.92;11.02;;;17.00;99.90;;;;;;5055602;28;20041;-49
2023/06/10 00:41:08;;;;;;;26.10;9.98;;;17.00;99.90;;;;;;5056840;28;20044;-51
2023/06/10 00:43:35;;;;;;;23.95;10.48;;;17.00;99.90;;;;;;5056977;28;20463;-54
2023/06/10 00:46:02;;;;;;;21.00;10.18;;;16.90;99.90;;;;;;5056733;28;20045;-53
2023/06/10 00:48:29;;;;;;;22.70;10.13;;;16.90;99.90;;;;;;5056862;28;20426;-52
2023/06/10 00:50:56;;;;;;;27.95;10.32;;;16.80;99.90;;;;;;5055511;28;20039;-54
2023/06/10 00:53:22;;;;;;;24.38;10.10;;;16.80;99.90;;;;;;5055783;28;20072;-56
2023/06/10 00:55:49;;;;;;;22.13;9.75;;;16.70;99.90;;;;;;5056186;28;20041;-56
2023/06/10 00:58:16;;;;;;;23.27;10.15;;;16.70;99.90;;;;;;5056831;28;20035;-56
2023/06/10 01:00:45;;;;;;;21.08;10.00;;;16.60;99.90;;;;;;5055085;28;20040;-52
2023/06/10 01:03:12;;;;;;;25.92;9.80;;;16.60;99.90;;;;;;5056729;28;20131;-55
2023/06/10 01:05:38;;;;;;;23.90;10.43;;;16.60;99.90;;;;;;5054844;28;20102;-55
2023/06/10 01:08:05;;;;;;;25.05;10.15;;;16.50;99.90;;;;;;5056249;28;20076;-50
2023/06/10 01:10:32;;;;;;;23.15;10.52;;;16.50;99.90;;;;;;5056286;28;20045;-52
2023/06/10 01:13:02;;;;;;;27.95;10.02;;;16.40;99.90;;;;;;5056232;28;20111;-51
2023/06/10 01:15:30;;;;;;;23.77;10.35;;;16.40;99.90;;;;;;5055933;28;20041;-52
2023/06/10 01:17:57;;;;;;;23.33;9.95;;;16.40;99.90;;;;;;5054718;28;20040;-55
2023/06/10 01:20:26;;;;;;;25.65;10.38;;;16.40;99.90;;;;;;5071379;28;20049;-56
2023/06/10 01:22:54;;;;;;;22.63;9.75;;;16.40;99.90;;;;;;5056262;28;20041;-51
2023/06/10 01:25:27;;;;;;;26.33;9.63;;;16.30;99.90;;;;;;5055083;28;20377;-53
2023/06/10 01:27:54;;;;;;;26.45;9.75;;;16.30;99.90;;;;;;5056769;28;20041;-55
2023/06/10 01:30:23;;;;;;;22.60;10.30;;;16.30;99.90;;;;;;5055068;28;20040;-52
2023/06/10 01:32:49;;;;;;;23.45;9.70;;;16.20;99.90;;;;;;5056364;28;20124;-52
2023/06/10 01:35:16;;;;;;;26.48;10.38;;;16.20;99.90;;;;;;5072038;28;20044;-51
2023/06/10 01:37:43;;;;;;;26.20;10.05;;;16.10;99.90;;;;;;5055148;28;20049;-51
2023/06/10 01:40:10;;;;;;;21.65;10.07;;;16.20;99.90;;;;;;5054610;28;20041;-53
2023/06/10 01:42:37;;;;;;;25.40;10.57;;;16.10;99.90;;;;;;5055927;28;20131;-50
2023/06/10 01:45:04;;;;;;;24.38;10.27;;;16.10;99.90;;;;;;5052470;28;20444;-49
2023/06/10 01:47:31;;;;;;;22.30;9.57;;;16.10;99.90;;;;;;5034932;28;20503;-51
2023/06/10 01:49:59;;;;;;;27.05;9.55;;;16.10;99.90;;;;;;5034983;28;20434;-54
2023/06/10 01:52:27;;;;;;;23.15;10.60;;;16.00;99.90;;;;;;5034672;28;20043;-54
2023/06/10 01:54:53;;;;;;;29.75;10.30;;;16.00;99.90;;;;;;5036356;28;20048;-50
2023/06/10 01:57:20;;;;;;;20.85;9.32;;;16.00;99.90;;;;;;5035790;28;20054;-52
2023/06/10 01:59:47;;;;;;;24.73;10.02;;;16.00;99.90;;;;;;5034682;28;20464;-52
2023/06/10 02:02:14;;;;;;;26.75;10.82;;;15.90;99.90;;;;;;5036150;28;20409;-54
2023/06/10 02:04:41;;;;;;;20.92;9.38;;;15.90;99.90;;;;;;5035875;28;20072;-51
2023/06/10 02:07:08;;;;;;;24.65;9.20;;;15.80;99.90;;;;;;5034788;28;20429;-52
2023/06/10 02:09:35;;;;;;;24.42;9.43;;;15.80;99.90;;;;;;5036069;28;20037;-54
2023/06/10 02:12:02;;;;;;;18.35;9.85;;;15.90;99.90;;;;;;5034491;28;20404;-56
2023/06/10 02:14:28;;;;;;;19.73;9.05;;;15.90;99.90;;;;;;5034566;28;20044;-54
2023/06/10 02:16:57;;;;;;;23.75;10.30;;;15.80;99.90;;;;;;5034421;28;20436;-56
2023/06/10 02:19:26;;;;;;;23.30;10.65;;;15.80;99.90;;;;;;5035185;28;20048;-53
2023/06/10 02:21:53;;;;;;;24.92;10.10;;;15.80;99.90;;;;;;5035088;28;20034;-54
2023/06/10 02:24:20;;;;;;;23.02;10.07;;;15.80;99.90;;;;;;5035187;28;20380;-56
2023/06/10 02:26:47;;;;;;;26.80;10.30;;;15.80;99.90;;;;;;5035490;28;20045;-51
2023/06/10 02:29:15;;;;;;;25.55;10.02;;;15.80;99.90;;;;;;5033967;28;20041;-53
2023/06/10 02:31:42;;;;;;;28.38;10.73;;;15.70;99.90;;;;;;5035405;28;20042;-56
2023/06/10 02:34:09;;;;;;;22.05;9.40;;;15.70;99.90;;;;;;5034276;28;20037;-51
2023/06/10 02:36:36;;;;;;;25.92;10.35;;;15.70;99.90;;;;;;5034290;28;20497;-52
2023/06/10 02:39:04;;;;;;;24.98;10.48;;;15.70;99.90;;;;;;5033839;28;20377;-54
2023/06/10 02:41:32;;;;;;;19.85;9.48;;;15.60;99.90;;;;;;5033894;28;20045;-57
2023/06/10 02:44:00;;;;;;;21.08;10.38;;;15.60;99.90;;;;;;5033652;28;20115;-54
2023/06/10 02:46:28;;;;;;;25.45;10.63;;;15.60;99.90;;;;;;5033738;28;20053;-52
2023/06/10 02:48:56;;;;;;;22.27;9.48;;;15.60;99.90;;;;;;5033906;28;20045;-53
2023/06/10 02:51:24;;;;;;;27.25;10.15;;;15.50;99.90;;;;;;5033991;28;20048;-52
2023/06/10 02:53:57;;;;;;;24.92;10.65;;;15.50;99.90;;;;;;5018242;28;20468;-50
2023/06/10 02:56:25;;;;;;;24.88;10.18;;;15.50;99.90;;;;;;5034756;28;20056;-49
2023/06/10 02:58:54;;;;;;;25.70;10.70;;;15.50;99.90;;;;;;5033846;28;20049;-54
2023/06/10 03:01:23;;;;;;;23.90;10.07;;;15.50;99.90;;;;;;5033625;28;20136;-52
2023/06/10 03:03:57;;;;;;;24.75;10.43;;;15.40;99.90;;;;;;5033367;28;20068;-53
2023/06/10 03:06:24;;;;;;;20.70;10.32;;;15.40;99.90;;;;;;5033521;28;20053;-53
2023/06/10 03:08:55;;;;;;;26.20;9.60;;;15.40;99.90;;;;;;5033633;28;20037;-53
2023/06/10 03:11:22;;;;;;;21.55;10.25;;;15.40;99.90;;;;;;5033083;28;20048;-53
2023/06/10 03:13:49;;;;;;;20.52;9.75;;;15.30;99.90;;;;;;5032804;28;20512;-56
2023/06/10 03:16:18;;;;;;;25.50;10.35;;;15.30;99.90;;;;;;5033501;28;20048;-54
2023/06/10 03:18:46;;;;;;;26.88;9.85;;;15.30;99.90;;;;;;5033270;28;20504;-51
2023/06/10 03:21:13;;;;;;;24.48;10.32;;;15.30;99.90;;;;;;5033082;28;20064;-51
2023/06/10 03:23:41;;;;;;;26.60;9.80;;;15.30;99.90;;;;;;5032829;28;20484;-54
2023/06/10 03:26:09;;;;;;;22.55;9.50;;;15.30;99.90;;;;;;5033055;28;20076;-55
2023/06/10 03:28:38;;;;;;;23.10;10.27;;;15.20;99.90;;;;;;5033352;28;20041;-55
2023/06/10 03:31:06;;;;;;;24.02;10.38;;;15.20;99.90;;;;;;5034533;28;20091;-55
2023/06/10 03:33:33;;;;;;;27.80;10.13;;;15.20;99.90;;;;;;5034230;28;20437;-51
2023/06/10 03:36:00;;;;;;;24.67;10.57;;;15.20;99.90;;;;;;5033083;28;20041;-53
2023/06/10 03:38:28;;;;;;;23.00;10.18;;;15.20;99.90;;;;;;5033112;28;20037;-52
2023/06/10 03:40:55;;;;;;;24.95;9.45;;;15.20;99.90;;;;;;5016527;28;20053;-57
2023/06/10 03:43:22;;;;;;;24.55;10.48;;;15.20;99.90;;;;;;5032892;28;20487;-49
2023/06/10 03:45:50;;;;;;;23.60;10.13;;;15.20;99.90;;;;;;5032412;28;20085;-54
2023/06/10 03:48:17;;;;;;;22.33;9.68;;;15.20;99.90;;;;;;5032520;28;20141;-50
2023/06/10 03:50:50;;;;;;;27.50;10.93;;;15.20;99.90;;;;;;5032846;28;20417;-53
2023/06/10 03:53:19;;;;;;;21.77;10.48;;;15.20;99.90;;;;;;5032755;28;20042;-53
2023/06/10 03:55:46;;;;;;;27.88;10.35;;;15.20;99.90;;;;;;5032680;28;20041;-54
2023/06/10 03:58:15;;;;;;;17.25;9.73;;;15.10;99.90;;;;;;5032852;28;20049;-51
2023/06/10 04:00:42;;;;;;;18.90;9.40;;;15.10;99.90;;;;;;5032984;28;20121;-51
2023/06/10 04:03:09;;;;;;;25.33;10.15;;;15.00;99.90;;;;;;5033854;28;20089;-49
2023/06/10 04:05:44;;;;;;;20.40;9.00;;;15.00;99.90;;;;;;5032673;28;20133;-53
2023/06/10 04:08:10;;;;;;;21.40;9.73;;;15.10;99.90;;;;;;5033807;28;20096;-50
2023/06/10 04:10:37;;;;;;;28.42;10.68;;;15.10;99.90;;;;;;5033845;28;20388;-50
2023/06/10 04:13:04;;;;;;;22.70;10.07;;;15.10;99.90;;;;;;5033551;28;20052;-52
2023/06/10 04:15:37;;;;;;;22.45;9.65;;;15.10;99.90;;;;;;5017241;28;20044;-52
2023/06/10 04:18:08;;;;;;;27.05;9.75;;;15.00;99.90;;;;;;5032440;28;20095;-52
2023/06/10 04:20:36;;;;;;;21.90;9.48;;;15.00;99.90;;;;;;5032428;28;20382;-55
2023/06/10 04:23:02;;;;;;;22.33;9.95;;;15.00;99.90;;;;;;5032293;28;20508;-55
2023/06/10 04:25:30;;;;;;;23.65;10.30;;;15.00;99.90;;;;;;5031985;28;20100;-51
2023/06/10 04:27:57;;;;;;;21.92;9.75;;;15.00;99.90;;;;;;5032401;28;20041;-54
2023/06/10 04:30:24;;;;;;;21.42;9.35;;;15.10;99.90;;;;;;5032047;28;20041;-54
2023/06/10 04:32:52;;;;;;;20.33;8.93;;;15.10;99.90;;;;;;5032428;28;20067;-50
2023/06/10 04:35:19;;;;;;;24.58;9.73;;;15.20;99.90;;;;;;5033539;28;20046;-53
2023/06/10 04:37:48;;;;;;;21.17;9.00;;;15.30;99.90;;;;;;5031955;28;20037;-53
2023/06/10 04:40:15;;;;;;;21.60;9.23;;;15.30;99.90;;;;;;5032100;28;20472;-52
2023/06/10 04:42:43;;;;;;;20.88;9.45;;;15.50;99.90;;;;;;5032462;28;20128;-53
2023/06/10 04:45:10;;;;;;;21.83;8.95;;;15.60;99.90;;;;;;5033620;28;20396;-51
2023/06/10 04:47:38;;;;;;;17.85;9.20;;;15.70;99.90;;;;;;5032215;28;20057;-49
2023/06/10 04:50:06;;;;;;;24.90;9.27;;;15.70;99.90;;;;;;5031935;28;20550;-52
2023/06/10 04:52:33;;;;;;;22.25;8.57;;;15.80;99.90;;;;;;5033187;28;20484;-53
2023/06/10 04:55:00;;;;;;;20.42;8.90;;;15.90;99.90;;;;;;5032069;28;20508;-54
2023/06/10 04:57:27;;;;;;;19.27;8.75;;;16.00;99.90;;;;;;5033218;28;20553;-52
2023/06/10 04:59:54;;;;;;;20.10;8.35;;;16.10;99.90;;;;;;5033723;28;20125;-54
2023/06/10 05:02:20;;;;;;;25.83;9.00;;;16.20;99.90;;;;;;5033104;28;20041;-56
2023/06/10 05:04:47;;;;;;;17.60;8.13;;;16.20;99.90;;;;;;5033052;28;20045;-53
2023/06/10 05:07:14;;;;;;;18.48;8.35;;;16.30;99.90;;;;;;5033078;28;20460;-51
2023/06/10 05:09:41;;;;;;;20.58;8.75;;;16.30;99.90;;;;;;5033268;28;20125;-52
2023/06/10 05:12:08;;;;;;;22.98;8.77;;;16.30;99.90;;;;;;5044571;28;20040;-50
2023/06/10 05:14:35;;;;;;;20.02;9.20;;;16.30;99.90;;;;;;5056753;28;20036;-53
2023/06/10 05:17:02;;;;;;;14.90;7.97;;;16.30;99.90;;;;;;5056724;28;20033;-51
2023/06/10 05:19:29;;;;;;;21.58;8.55;;;16.30;99.90;;;;;;5056645;28;20120;-54
2023/06/10 05:21:55;;;;;;;21.15;8.80;;;16.30;99.90;;;;;;5056694;28;20053;-54
2023/06/10 05:24:23;;;;;;;19.88;8.85;;;16.40;99.90;;;;;;5056387;28;20036;-53
2023/06/10 05:26:50;;;;;;;17.48;7.88;;;16.40;99.90;;;;;;5055442;28;20077;-54
2023/06/10 05:29:17;;;;;;;15.52;8.00;;;16.60;99.90;;;;;;5056922;28;20037;-52
2023/06/10 05:31:43;;;;;;;19.38;8.30;;;16.80;99.90;;;;;;5056557;28;20136;-52
2023/06/10 05:34:10;;;;;;;18.48;8.32;;;16.90;99.90;;;;;;5055301;28;20037;-55
2023/06/10 05:36:37;;;;;;;18.38;8.05;;;17.10;99.90;;;;;;5056335;28;20545;-53
2023/06/10 05:39:04;;;;;;;18.67;8.98;;;17.10;99.90;;;;;;5055155;28;20048;-51
2023/06/10 05:41:31;;;;;;;18.85;8.98;;;17.10;99.90;;;;;;5056504;28;20053;-52
2023/06/10 05:43:57;;;;;;;22.40;8.85;;;17.20;99.90;;;;;;5071574;28;20041;-52
2023/06/10 05:46:24;;;;;;;17.38;8.38;;;17.30;99.90;;;;;;5056717;28;20357;-51
2023/06/10 05:48:51;;;;;;;19.42;8.45;;;17.40;99.90;;;;;;5055432;28;20041;-50
2023/06/10 05:51:18;;;;;;;22.27;9.27;;;17.40;99.90;;;;;;5071542;28;20060;-52
2023/06/10 05:53:46;;;;;;;19.35;8.32;;;17.60;99.90;;;;;;5056058;28;20116;-47
2023/06/10 05:56:13;;;;;;;20.50;8.20;;;17.70;99.90;;;;;;5056336;28;20103;-53
2023/06/10 05:58:39;;;;;;;18.08;8.18;;;17.80;99.90;;;;;;5056277;28;20065;-52
2023/06/10 06:01:06;;;;;;;23.35;9.45;;;17.90;99.90;;;;;;5055856;28;20048;-54
2023/06/10 06:03:33;;;;;;;23.40;9.13;;;18.00;99.90;;;;;;5055950;28;20075;-53
2023/06/10 06:06:00;;;;;;;19.40;8.75;;;18.00;99.90;;;;;;5055902;28;20041;-54
2023/06/10 06:08:27;;;;;;;17.30;8.23;;;18.00;99.90;;;;;;5055955;28;20072;-56
2023/06/10 06:10:54;;;;;;;22.42;9.30;;;17.90;99.90;;;;;;5055682;28;20047;-53
2023/06/10 06:13:20;;;;;;;23.55;9.88;;;18.00;99.90;;;;;;5055409;28;20128;-52
2023/06/10 06:15:47;;;;;;;18.90;8.70;;;17.90;99.90;;;;;;5055676;28;20036;-55
2023/06/10 06:18:14;;;;;;;20.85;8.70;;;17.90;99.90;;;;;;5054513;28;20037;-54
2023/06/10 06:20:41;;;;;;;21.48;9.98;;;17.80;99.90;;;;;;5055535;28;20091;-50
2023/06/10 06:23:11;;;;;;;26.05;10.00;;;17.80;99.90;;;;;;5070165;28;20048;-49
2023/06/10 06:25:38;;;;;;;20.13;9.48;;;17.70;99.90;;;;;;5054762;28;20551;-55
2023/06/10 06:28:05;;;;;;;23.08;10.07;;;17.70;99.90;;;;;;5054891;28;20080;-49
2023/06/10 06:30:32;;;;;;;21.42;9.85;;;17.70;99.90;;;;;;5054488;28;20045;-50
2023/06/10 06:32:59;;;;;;;23.15;10.02;;;17.80;99.90;;;;;;5054853;28;20480;-49
2023/06/10 06:35:26;;;;;;;20.77;10.35;;;17.80;99.90;;;;;;5054621;28;20044;-47
2023/06/10 06:37:53;;;;;;;21.70;10.05;;;17.80;99.90;;;;;;5054663;28;20071;-51
2023/06/10 06:40:24;;;;;;;18.98;10.35;;;17.90;99.90;;;;;;5053300;28;20480;-51
2023/06/10 06:42:51;;;;;;;19.13;9.60;;;18.00;99.90;;;;;;5054799;28;20128;-47
2023/06/10 06:45:28;;;;;;;19.92;9.48;;;18.10;99.90;;;;;;5054920;28;20069;-48
2023/06/10 06:47:56;;;;;;;23.13;10.93;;;18.10;99.90;;;;;;5053430;28;20036;-46
2023/06/10 06:50:22;;;;;;;25.77;11.00;;;18.20;99.90;;;;;;5054669;28;20049;-50
2023/06/10 06:52:49;;;;;;;26.80;10.98;;;18.20;99.90;;;;;;5054363;28;20045;-51
2023/06/10 06:55:16;;;;;;;20.92;10.63;;;18.20;99.90;;;;;;5054328;28;20368;-55
2023/06/10 06:57:43;;;;;;;23.35;10.82;;;18.20;99.90;;;;;;5054386;28;20052;-55
2023/06/10 07:00:11;;;;;;;23.55;10.65;;;18.20;99.90;;;;;;5052915;28;20055;-48
2023/06/10 07:02:38;;;;;;;24.25;11.15;;;18.30;99.90;;;;;;5054330;28;20052;-54
2023/06/10 07:05:05;;;;;;;21.65;10.82;;;18.30;99.90;;;;;;5054374;28;20044;-51
2023/06/10 07:07:33;;;;;;;21.92;11.18;;;18.40;99.90;;;;;;5052726;28;20045;-50
2023/06/10 07:10:00;;;;;;;21.23;10.95;;;18.40;99.90;;;;;;5054077;28;20049;-50
2023/06/10 07:12:27;;;;;;;24.40;11.32;;;18.40;99.90;;;;;;5054003;28;20449;-46
2023/06/10 07:14:54;;;;;;;23.85;10.82;;;18.50;99.90;;;;;;5054189;28;20403;-51
2023/06/10 07:17:20;;;;;;;23.30;11.18;;;18.60;99.90;;;;;;5053902;28;20067;-48
2023/06/10 07:19:47;;;;;;;19.23;10.48;;;18.60;99.90;;;;;;5054151;28;20040;-53
2023/06/10 07:22:14;;;;;;;18.58;10.75;;;18.60;99.90;;;;;;5053870;28;20052;-53
2023/06/10 07:24:41;;;;;;;22.20;10.52;;;18.60;99.90;;;;;;5052507;28;20052;-53
2023/06/10 07:27:10;;;;;;;23.90;11.15;;;18.70;99.90;;;;;;5036111;28;20048;-54
2023/06/10 07:29:36;;;;;;;22.02;11.13;;;18.70;99.90;;;;;;5053766;28;20036;-50
2023/06/10 07:32:03;;;;;;;25.77;10.30;;;18.80;99.90;;;;;;5053618;28;20572;-52
2023/06/10 07:34:30;;;;;;;21.80;11.20;;;18.90;99.90;;;;;;5053574;28;20051;-51
2023/06/10 07:36:57;;;;;;;19.17;10.15;;;18.90;99.90;;;;;;5053411;28;20551;-55
2023/06/10 07:39:24;;;;;;;20.75;11.65;;;18.90;99.90;;;;;;5053801;28;20045;-53
2023/06/10 07:41:53;;;;;;;25.83;11.50;;;19.00;99.90;;;;;;5054761;28;20135;-50
2023/06/10 07:44:20;;;;;;;27.35;11.60;;;19.00;99.90;;;;;;5045931;28;20064;-52
2023/06/10 07:46:47;;;;;;;22.70;11.43;;;19.00;99.90;;;;;;5053352;28;20403;-54
2023/06/10 07:49:14;;;;;;;22.58;11.23;;;19.10;99.90;;;;;;5053316;28;20110;-54
2023/06/10 07:51:41;;;;;;;22.20;11.27;;;19.20;99.90;;;;;;5053249;28;20488;-50
2023/06/10 07:54:08;;;;;;;22.23;10.75;;;19.20;99.90;;;;;;5053202;28;20099;-54
2023/06/10 07:56:35;;;;;;;21.77;10.95;;;19.20;99.90;;;;;;5053227;28;20056;-48
2023/06/10 07:59:02;;;;;;;20.27;11.88;;;19.40;99.90;;;;;;5053530;28;20472;-51
2023/06/10 08:01:30;;;;;;;19.98;11.00;;;19.40;99.90;;;;;;5053255;28;20452;-49
2023/06/10 08:03:56;;;;;;;19.35;10.32;;;19.50;99.90;;;;;;5052114;28;20040;-48
2023/06/10 08:06:23;;;;;;;21.27;10.57;;;19.60;99.90;;;;;;5051831;28;20511;-48
2023/06/10 08:08:50;;;;;;;20.50;11.43;;;19.60;99.90;;;;;;5053568;28;20041;-51
2023/06/10 08:11:17;;;;;;;23.13;11.60;;;19.80;99.90;;;;;;5051897;28;20082;-49
2023/06/10 08:13:44;;;;;;;23.95;11.95;;;19.90;99.90;;;;;;5053124;28;20041;-48
2023/06/10 08:16:11;;;;;;;26.08;12.93;;;20.00;99.90;;;;;;5051830;28;20044;-52
2023/06/10 08:18:38;;;;;;;24.48;12.00;;;20.00;99.90;;;;;;5052958;28;20044;-49
2023/06/10 08:21:04;;;;;;;26.88;12.32;;;20.00;99.90;;;;;;5053096;28;20048;-53
2023/06/10 08:23:32;;;;;;;19.95;11.40;;;20.10;99.90;;;;;;5051901;28;20136;-54
2023/06/10 08:25:59;;;;;;;25.88;11.00;;;20.20;99.90;;;;;;5053594;28;20090;-51
2023/06/10 08:28:25;;;;;;;22.80;11.43;;;20.20;99.90;;;;;;5052060;28;20488;-49
2023/06/10 08:30:52;;;;;;;18.80;10.93;;;20.30;99.90;;;;;;5053852;28;20041;-54
2023/06/10 08:33:22;;;;;;;20.15;10.38;;;20.40;99.90;;;;;;5053146;28;20037;-55
2023/06/10 08:35:49;;;;;;;18.02;10.35;;;20.50;99.90;;;;;;5053552;28;20041;-52
2023/06/10 08:38:16;;;;;;;19.55;11.50;;;20.60;99.90;;;;;;5053449;28;20045;-52
2023/06/10 08:40:43;;;;;;;20.20;10.90;;;20.60;99.90;;;;;;5053746;28;20060;-53
2023/06/10 08:43:10;;;;;;;22.13;10.98;;;20.80;99.90;;;;;;5053085;28;20045;-52
2023/06/10 08:45:36;;;;;;;17.92;11.57;;;20.80;99.90;;;;;;5053291;28;20041;-48
2023/06/10 08:48:07;;;;;;;21.95;10.43;;;20.90;99.90;;;;;;5054907;28;20045;-52
2023/06/10 08:50:36;;;;;;;15.90;11.48;;;21.00;99.90;;;;;;5055412;28;20106;-49
2023/06/10 08:53:03;;;;;;;17.75;10.90;;;21.10;99.90;;;;;;5056522;28;20400;-50
2023/06/10 08:55:30;;;;;;;20.50;11.63;;;21.20;99.90;;;;;;5052657;28;20498;-51
2023/06/10 08:57:58;;;;;;;19.48;11.40;;;21.30;99.90;;;;;;5056483;28;20052;-51
2023/06/10 09:00:25;;;;;;;14.13;10.30;;;21.30;99.80;;;;;;5053366;28;20069;-52
2023/06/10 09:02:52;;;;;;;15.60;11.90;;;21.30;99.90;;;;;;5055494;28;20449;-54
2023/06/10 09:05:18;;;;;;;18.63;11.25;;;21.40;99.80;;;;;;5055394;28;20033;-54
2023/06/10 09:07:46;;;;;;;18.98;11.20;;;21.50;99.70;;;;;;5051974;28;20345;-55
2023/06/10 09:10:13;;;;;;;17.80;10.90;;;21.50;99.70;;;;;;5056590;28;20037;-55
2023/06/10 09:12:39;;;;;;;15.00;10.02;;;21.60;99.80;;;;;;5072090;28;20133;-50
2023/06/10 09:15:06;;;;;;;19.60;11.23;;;21.60;99.80;;;;;;5056284;28;20045;-47
2023/06/10 09:17:33;;;;;;;18.63;11.90;;;21.70;99.40;;;;;;5055915;28;20048;-49
2023/06/10 09:20:01;;;;;;;19.75;10.90;;;21.80;99.60;;;;;;5044450;28;20042;-49
2023/06/10 09:22:28;;;;;;;14.63;10.43;;;21.90;99.50;;;;;;5034984;28;20045;-50
2023/06/10 09:24:54;;;;;;;17.30;9.85;;;22.00;99.30;;;;;;5036332;28;20069;-47
2023/06/10 09:27:22;;;;;;;20.30;10.02;;;22.10;99.10;;;;;;5035092;28;20046;-52
2023/06/10 09:29:48;;;;;;;14.40;9.25;;;22.20;99.10;;;;;;5036344;28;20124;-47
2023/06/10 09:32:15;;;;;;;14.50;10.00;;;22.30;99.00;;;;;;5042916;28;20040;-51
2023/06/10 09:34:42;;;;;;;16.63;10.05;;;22.40;98.60;;;;;;5038944;28;20073;-54
2023/06/10 09:37:12;;;;;;;14.23;9.82;;;22.50;98.90;;;;;;5035609;28;20061;-50
2023/06/10 09:39:38;;;;;;;16.40;9.30;;;22.60;98.50;;;;;;5036408;28;20041;-49
2023/06/10 09:42:06;;;;;;;12.23;8.88;;;22.60;98.40;;;;;;5034293;28;20056;-53
2023/06/10 09:44:33;;;;;;;14.23;8.40;;;22.70;98.70;;;;;;5036384;28;20060;-52
2023/06/10 09:46:59;;;;;;;20.15;10.23;;;22.80;98.70;;;;;;5036582;28;20041;-53
2023/06/10 09:49:26;;;;;;;11.25;8.63;;;23.00;98.10;;;;;;5036502;28;20045;-51
2023/06/10 09:51:53;;;;;;;17.08;8.63;;;23.00;98.00;;;;;;5035469;28;20034;-53
2023/06/10 09:54:20;;;;;;;14.68;8.85;;;23.10;97.60;;;;;;5033698;28;20104;-51
2023/06/10 09:56:47;;;;;;;18.10;9.57;;;23.20;97.40;;;;;;5034458;28;20054;-49
2023/06/10 09:59:14;;;;;;;11.75;8.90;;;23.30;97.20;;;;;;5033890;28;20042;-51
2023/06/10 10:01:40;;;;;;;14.63;8.27;;;23.40;97.20;;;;;;5034800;28;20041;-55
2023/06/10 10:04:07;;;;;;;16.08;8.60;;;23.40;97.20;;;;;;5034679;28;20033;-53
2023/06/10 10:06:34;;;;;;;15.07;8.20;;;23.50;96.90;;;;;;5035078;28;20488;-49
2023/06/10 10:09:03;;;;;;;16.67;8.57;;;23.50;97.10;;;;;;5036244;28;20121;-52
2023/06/10 10:11:30;;;;;;;18.10;8.18;;;23.60;96.90;;;;;;5035445;28;20547;-51
2023/06/10 10:13:57;;;;;;;16.08;7.82;;;23.80;96.70;;;;;;5035860;28;20080;-47
2023/06/10 10:16:24;;;;;;;13.93;7.68;;;23.90;96.70;;;;;;5035889;28;20045;-55
2023/06/10 10:18:51;;;;;;;14.90;7.50;;;23.90;96.10;;;;;;5035677;28;20397;-53
2023/06/10 10:21:21;;;;;;;11.38;7.82;;;23.90;96.00;;;;;;5034437;28;20041;-51
2023/06/10 10:23:48;;;;;;;10.73;6.72;;;24.00;96.20;;;;;;5035385;28;20041;-51
2023/06/10 10:26:15;;;;;;;12.02;6.82;;;24.00;95.80;;;;;;5035935;28;20046;-53
2023/06/10 10:28:42;;;;;;;11.25;6.90;;;24.20;95.70;;;;;;5033961;28;20495;-51
2023/06/10 10:31:12;;;;;;;13.00;6.90;;;24.30;96.10;;;;;;5035370;28;20136;-56
2023/06/10 10:33:39;;;;;;;13.23;7.10;;;24.40;95.70;;;;;;5035123;28;20395;-53
2023/06/10 10:36:07;;;;;;;12.65;6.60;;;24.50;95.60;;;;;;5035532;28;20049;-52
2023/06/10 10:38:34;;;;;;;11.85;6.88;;;24.50;95.60;;;;;;5033933;28;20049;-51
2023/06/10 10:41:01;;;;;;;13.18;7.65;;;24.60;95.30;;;;;;5033426;28;20463;-51
2023/06/10 10:43:31;;;;;;;11.52;7.13;;;24.70;95.50;;;;;;5034680;28;20050;-55
2023/06/10 10:45:58;;;;;;;13.30;6.50;;;24.70;95.50;;;;;;5034935;28;20038;-52
2023/06/10 10:48:25;;;;;;;12.25;6.78;;;24.90;95.60;;;;;;5035178;28;20431;-51
2023/06/10 10:50:52;;;;;;;15.43;7.40;;;24.90;95.40;;;;;;5035189;28;20120;-51
2023/06/10 10:53:19;;;;;;;12.30;6.93;;;24.90;95.40;;;;;;5034966;28;20598;-49
2023/06/10 10:55:45;;;;;;;12.13;7.32;;;25.00;95.70;;;;;;5034751;28;20056;-53
2023/06/10 10:58:13;;;;;;;11.93;8.00;;;25.10;95.70;;;;;;5034952;28;20064;-49
2023/06/10 11:00:39;;;;;;;14.50;8.10;;;25.30;95.40;;;;;;5035086;28;20053;-54
2023/06/10 11:03:10;;;;;;;16.63;8.38;;;25.30;95.40;;;;;;5035070;28;20123;-52
2023/06/10 11:05:41;;;;;;;9.48;7.78;;;25.30;95.50;;;;;;5034581;28;20128;-54
2023/06/10 11:08:10;;;;;;;11.60;6.90;;;25.30;95.50;;;;;;5033735;28;20042;-54
2023/06/10 11:10:37;;;;;;;14.57;7.93;;;25.30;95.50;;;;;;5034395;28;20049;-53
2023/06/10 11:13:08;;;;;;;14.25;8.45;;;25.40;95.50;;;;;;5033265;28;20041;-51
2023/06/10 11:15:35;;;;;;;16.90;7.32;;;25.50;95.30;;;;;;5034375;28;20091;-53
2023/06/10 11:18:02;;;;;;;12.52;7.95;;;25.50;95.30;;;;;;5034709;28;20044;-52
2023/06/10 11:20:28;;;;;;;15.07;7.57;;;25.60;95.40;;;;;;5034414;28;20043;-50
2023/06/10 11:22:56;;;;;;;18.75;7.47;;;25.60;95.20;;;;;;5034549;28;20468;-48
2023/06/10 11:25:23;;;;;;;12.57;7.63;;;25.60;95.50;;;;;;5034018;28;20095;-52
2023/06/10 11:27:50;;;;;;;14.32;7.30;;;25.70;95.30;;;;;;5016600;28;20049;-48
2023/06/10 11:30:22;;;;;;;12.93;6.65;;;25.70;95.20;;;;;;5034219;28;20048;-53
2023/06/10 11:32:49;;;;;;;11.15;6.13;;;25.80;95.30;;;;;;5033948;28;20065;-53
2023/06/10 11:35:16;;;;;;;13.75;7.10;;;25.90;94.70;;;;;;5033758;28;20048;-52
2023/06/10 11:37:43;;;;;;;13.43;6.35;;;26.00;94.70;;;;;;5033859;28;20095;-53
2023/06/10 11:40:09;;;;;;;11.18;6.70;;;26.00;94.70;;;;;;5033961;28;20100;-51
2023/06/10 11:42:36;;;;;;;10.55;7.10;;;26.10;94.90;;;;;;5033727;28;20037;-52
2023/06/10 11:45:03;;;;;;;12.18;6.30;;;26.10;94.60;;;;;;5034196;28;20052;-51
2023/06/10 11:47:30;;;;;;;12.65;6.45;;;26.20;94.60;;;;;;5038876;28;20045;-56
2023/06/10 11:49:57;;;;;;;12.88;6.15;;;26.30;94.10;;;;;;5053823;28;20065;-50
2023/06/10 11:52:24;;;;;;;10.23;7.00;;;26.30;94.50;;;;;;5052407;28;20044;-53
2023/06/10 11:54:51;;;;;;;14.52;7.07;;;26.40;94.50;;;;;;5053625;28;20456;-54
2023/06/10 11:57:18;;;;;;;11.80;7.47;;;26.40;94.80;;;;;;5043839;28;20167;-53
2023/06/10 11:59:45;;;;;;;9.95;7.55;;;26.50;94.60;;;;;;5043564;28;20479;-50
2023/06/10 12:02:12;;;;;;;12.60;7.32;;;26.50;94.60;;;;;;5049986;28;20037;-53
2023/06/10 12:04:39;;;;;;;10.93;7.20;;;26.60;94.50;;;;;;5053459;28;20037;-55
2023/06/10 12:07:06;;;;;;;15.52;7.20;;;26.60;93.80;;;;;;5052703;28;20033;-53
2023/06/10 12:09:33;;;;;;;13.95;7.65;;;26.60;94.30;;;;;;5053406;28;20103;-51
2023/06/10 12:12:00;;;;;;;12.13;6.88;;;26.60;94.30;;;;;;5052681;28;20115;-53
2023/06/10 12:14:27;;;;;;;12.38;7.75;;;26.70;94.50;;;;;;5053101;28;20464;-53
2023/06/10 12:16:54;;;;;;;11.13;7.22;;;26.80;94.30;;;;;;5052029;28;20448;-51
2023/06/10 12:19:21;;;;;;;14.90;7.13;;;26.80;94.00;;;;;;5053308;28;20075;-55
2023/06/10 12:21:48;;;;;;;14.20;7.30;;;26.80;94.00;;;;;;5050652;28;20052;-52
2023/06/10 12:24:17;;;;;;;12.07;7.25;;;26.90;94.10;;;;;;5053169;28;20049;-55
2023/06/10 12:26:47;;;;;;;12.63;7.38;;;27.00;93.70;;;;;;5050954;28;20072;-53
2023/06/10 12:29:14;;;;;;;11.85;7.32;;;27.00;93.70;;;;;;5052564;28;20499;-53
2023/06/10 12:31:41;;;;;;;13.57;7.38;;;27.10;93.70;;;;;;5050969;28;20041;-54
2023/06/10 12:34:08;;;;;;;10.68;6.63;;;27.10;93.20;;;;;;5052292;28;20116;-54